Pagrindinis puslapis
METAR-TAF:

METAR-TAF

Oro uostai :

Paksė, Laosas

platuma: 15-08-02N, ilguma: 105-46-55E, Aukštis: 107 m

Dabartinis oras

Ataskaita buvo paskelbta 5 valandos ir 29 minutes, ne 12:00 UTC
Vėjas 2 kt iš Rytų
Temperatūra 29°C
Drėgmė 84%
Slėgis 1006 hPa
Matomumas 10 km arba daugiau
Mažai debesys ne aukštis 2000 ft
Išsisklaidę debesys ne aukštis 5000 ft
Išsisklaidę debesys ne aukštis 20000 ft

METAR: VLPS 301200Z 09002KT 9999 FEW020 SCT050 SCT200 29/26 Q1006 NOSIG

Laikas: 00:29 (17:29 UTC)

Prognozė

Ataskaita buvo paskelbta 6 valandos ir 29 minutes, ne 11:00 UTC
Prognozė galioja nuo 30 metu 12 UTC su 01 metu 12 UTC
Vėjas 4 kt iš Pietų
Matomumas 10 km arba daugiau
Išsisklaidę debesys ne aukštis 2000 ft
Išsisklaidę debesys ne aukštis 5000 ft

TAF: VLPS 301100Z 3012/0112 18004KT 9999 SCT020 SCT050

Orai ataskaitas ir orų prognozės (METAR, TAF).

turimą stotys yra geltonos ir raudonos taškus žemėlapyje.

Perkelti pele per norėdami pamatyti stoties vardą.

Tada spustelėkite, norėdami matyti oro stebėjimo ir prognozės.

Norėdami pakeisti žemėlapį: spustelėkite ant žalios mygtukų su juodo kryžiaus žemyn,; žalią mygtuką su brūkšneliu, jei norite nutolinti; arba žalių rodyklių gretimoms žemėlapius.


METAR-TAF: